GMFF Airport Information

Runway Information
Runway 09 Length 10499 ft width 148 ft
Elevation 1854 ft Threshold 0 ft Heading 90
Runway 27 Length 10499 ft Width 148 ft
Elevation 1890 ft Threshold 820 ft Heading 270
Airport Frequencies
Type TWR Name TWR Frequency 118.6 MHZ
Airport Navaids
Type VOR-DME Name Saiss Frequency 115700 KHZ
Airport Weather Information & NOTAM
ADDS - METARS form results

(0220 UTC 23 January 2022)
Data provider http://aviationweather.gov/metar/data/
 
METAR text: GMFF 230200Z 10006KT 9999 FEW016 SCT100 11/00 Q1021 NOSIG
Conditions at: GMFF (FES-SAIS , MA) observed 0200 UTC 23 January 2022
Temperature: 11.0°C (52°F)
Dewpoint: 0.0°C (32°F) [RH = 47%]
Pressure (altimeter): 30.15 inches Hg (1021.0 mb)
Winds: from the E (100 degrees) at 7 MPH (6 knots; 3.1 m/s)
Visibility: 6 or more miles (10+ km)
Ceiling: at least 12,000 feet AGL
Clouds: few clouds at 1600 feet AGL
scattered clouds at 10000 feet AGL
Weather: no significant weather observed at this time

METAR text: GMFF 230130Z 06006KT 350V100 9999 FEW016 SCT100 10/M00 Q1021 NOSIG
Conditions at: GMFF (FES-SAIS , MA) observed 0130 UTC 23 January 2022
Temperature: 10.0°C (50°F)
Dewpoint: 0.0°C (32°F) [RH = 50%]
Pressure (altimeter): 30.15 inches Hg (1021.0 mb)
Winds: from the ENE (60 degrees) at 7 MPH (6 knots; 3.1 m/s)
Visibility: 6 or more miles (10+ km)
Ceiling: at least 12,000 feet AGL
Clouds: few clouds at 1600 feet AGL
scattered clouds at 10000 feet AGL
Weather: no significant weather observed at this time

Forecast for: GMFF (FES-SAIS , MA)
Text: TAF GMFF 222300Z 2300/2406 07008KT 9999 FEW016 SCT100
Forecast period: 0000 UTC 23 January 2022 to 0600 UTC 24 January 2022
Forecast type: FROM: standard forecast or significant change
Winds: from the ENE (70 degrees) at 9 MPH (8 knots; 4.1 m/s)
Visibility: 6 or more miles (10+ km)
Ceiling: at least 12,000 feet AGL
Clouds: few clouds at 1600 feet AGL
scattered clouds at 10000 feet AGL
Weather: no significant weather forecast for this period
Text: PROB30
Forecast period: 0500 to 0900 UTC 23 January 2022
Forecast type: TEMPORARY: The following changes expected for less than half the time period
Visibility: 4 miles (6 km)
Ceiling: 1500 feet AGL
Clouds: broken clouds at 1500 feet AGL
broken clouds at 20000 feet AGL
Weather: RA  (moderate rain)